Aurora, Illinois
Current Conditions -  °F | °C
As of 4:27 AM on Saturday 22 Nov 2014 (Local Time) from KARR Reporting Station
Haze Haze  
Wind Chill: -2°   Ceiling: 400
Heat Index:   Visibility: 2mi
Dew Point:   Wind: 9mph
Humidity: 89%   Direction: 180°S
Pressure: 30.07"   Gusts: NA
Location:  41.76°N, 88.31°W
Report Text: KARR 221027Z AUTO 18008KT 2SM BR OVC004 02/00 A3007 RMK AO2 RAE03 P0001 T00170000 $
Loading
Personal Weather Stations






























Interactive Weather Map New forecast layout! Learn more

10-Day Weather Forecast

Advertisements
Track Severe Weather on mobile